Aviation Digital Data Service (ADDS)

Output produced by METARs form (0524 UTC 06 May 2015)
found at http://aviationweather.gov/adds/metars/
 
KCAR 060140Z 0602/0624 30010KT P6SM BKN090 
     FM060400 30008KT P6SM SKC 
     FM061600 30015G28KT P6SM SKC